createdAt,value
2018-05-25T00:00:04.622Z,19.47
2018-05-25T00:01:10.129Z,19.50
2018-05-25T00:02:16.644Z,19.46
2018-05-25T00:03:21.153Z,19.48
2018-05-25T00:04:26.671Z,19.42
2018-05-25T00:05:32.181Z,19.40
2018-05-25T00:06:37.751Z,19.33
2018-05-25T00:07:43.278Z,19.39
2018-05-25T00:08:49.750Z,19.43
2018-05-25T00:09:54.254Z,19.35
2018-05-25T00:10:59.768Z,19.32
2018-05-25T00:12:05.300Z,19.28
2018-05-25T00:13:10.798Z,19.28
2018-05-25T00:14:16.320Z,19.32
2018-05-25T00:15:22.861Z,19.31
2018-05-25T00:16:27.367Z,19.29
2018-05-25T00:17:32.875Z,19.21
2018-05-25T00:18:38.401Z,19.14
2018-05-25T00:19:43.902Z,19.24
2018-05-25T00:20:49.425Z,19.17
2018-05-25T00:21:55.947Z,19.24
2018-05-25T00:23:00.460Z,19.17
2018-05-25T00:24:05.972Z,19.14
2018-05-25T00:25:11.505Z,19.08
2018-05-25T00:26:17.006Z,19.14
2018-05-25T00:27:22.518Z,19.11
2018-05-25T00:28:29.065Z,19.14
2018-05-25T00:29:33.554Z,19.10
2018-05-25T00:30:39.072Z,19.02
2018-05-25T00:31:44.591Z,18.95
2018-05-25T00:32:50.102Z,19.02
2018-05-25T00:33:55.627Z,18.97
2018-05-25T00:35:02.147Z,19.02
2018-05-25T00:36:06.650Z,19.02
2018-05-25T00:37:12.177Z,18.95
2018-05-25T00:38:17.691Z,18.90
2018-05-25T00:39:23.205Z,19.01
2018-05-25T00:40:28.737Z,18.97
2018-05-25T00:41:35.284Z,18.95
2018-05-25T00:42:39.748Z,18.94
2018-05-25T00:43:45.269Z,18.97
2018-05-25T00:44:50.875Z,18.99
2018-05-25T00:45:56.311Z,18.92
2018-05-25T00:47:01.831Z,18.94
2018-05-25T00:48:08.351Z,18.95
2018-05-25T00:49:12.861Z,18.99
2018-05-25T00:50:18.381Z,18.94
2018-05-25T00:51:23.890Z,18.94
2018-05-25T00:52:29.416Z,18.99
2018-05-25T00:53:34.915Z,18.95
2018-05-25T00:54:41.443Z,18.95
2018-05-25T00:55:45.965Z,18.92
2018-05-25T00:56:51.482Z,18.95
2018-05-25T00:57:56.996Z,19.02
2018-05-25T00:59:02.508Z,18.98
2018-05-25T01:00:08.014Z,18.95
2018-05-25T01:01:14.548Z,18.97
2018-05-25T01:02:19.057Z,18.92
2018-05-25T01:03:24.578Z,18.92
2018-05-25T01:04:30.090Z,18.95
2018-05-25T01:05:35.605Z,18.87
2018-05-25T01:06:41.135Z,18.95
2018-05-25T01:07:47.640Z,18.87
2018-05-25T01:08:52.160Z,18.90
2018-05-25T01:09:57.688Z,18.83
2018-05-25T01:11:03.190Z,18.82
2018-05-25T01:12:08.695Z,18.91
2018-05-25T01:13:14.218Z,18.73
2018-05-25T01:14:20.758Z,18.87
2018-05-25T01:15:25.276Z,18.83
2018-05-25T01:16:30.775Z,18.86
2018-05-25T01:17:36.347Z,18.84
2018-05-25T01:18:41.801Z,18.87
2018-05-25T01:19:47.334Z,18.80
2018-05-25T01:20:53.841Z,18.82
2018-05-25T01:21:58.354Z,18.77
2018-05-25T01:23:03.871Z,18.79
2018-05-25T01:24:09.381Z,18.77
2018-05-25T01:25:14.911Z,18.80
2018-05-25T01:26:20.410Z,18.82
2018-05-25T01:27:26.948Z,18.80
2018-05-25T01:28:31.453Z,18.77
2018-05-25T01:29:36.962Z,18.80
2018-05-25T01:30:42.477Z,18.77
2018-05-25T01:31:48.000Z,18.74
2018-05-25T01:32:53.666Z,18.77
2018-05-25T01:34:00.045Z,18.76
2018-05-25T01:35:04.545Z,18.77
2018-05-25T01:36:10.078Z,18.77
2018-05-25T01:37:15.731Z,18.74
2018-05-25T01:38:21.102Z,18.77
2018-05-25T01:39:26.612Z,18.82
2018-05-25T01:40:33.137Z,18.76
2018-05-25T01:41:37.650Z,18.82
2018-05-25T01:42:43.162Z,18.77
2018-05-25T01:43:48.684Z,18.77
2018-05-25T01:44:54.195Z,18.83
2018-05-25T01:45:59.717Z,18.80
2018-05-25T01:47:06.251Z,18.74
2018-05-25T01:48:10.760Z,18.80
2018-05-25T01:49:16.269Z,18.77
2018-05-25T01:50:21.788Z,18.76
2018-05-25T01:51:27.293Z,18.74
2018-05-25T01:52:32.817Z,18.82
2018-05-25T01:53:39.386Z,18.77
2018-05-25T01:54:43.851Z,18.77
2018-05-25T01:55:49.450Z,18.76
2018-05-25T01:56:54.884Z,18.77
2018-05-25T01:58:00.391Z,18.73
2018-05-25T01:59:05.921Z,18.73
2018-05-25T02:00:12.450Z,18.73
2018-05-25T02:01:16.950Z,18.62
2018-05-25T02:02:22.472Z,18.64
2018-05-25T02:03:27.971Z,18.67
2018-05-25T02:04:33.503Z,18.73
2018-05-25T02:05:39.011Z,18.64
2018-05-25T02:06:45.534Z,18.64
2018-05-25T02:07:50.045Z,18.68
2018-05-25T02:08:55.570Z,18.65
2018-05-25T02:10:01.072Z,18.65
2018-05-25T02:11:06.618Z,18.61
2018-05-25T02:12:12.121Z,18.64
2018-05-25T02:13:18.630Z,18.62
2018-05-25T02:14:23.140Z,18.65
2018-05-25T02:15:28.665Z,18.70
2018-05-25T02:16:34.180Z,18.65
2018-05-25T02:17:39.711Z,18.65
2018-05-25T02:18:45.214Z,18.73
2018-05-25T02:19:51.731Z,18.65
2018-05-25T02:20:56.239Z,18.62
2018-05-25T02:22:01.759Z,18.72
2018-05-25T02:23:07.269Z,18.61
2018-05-25T02:24:12.792Z,18.70
2018-05-25T02:25:18.301Z,18.65
2018-05-25T02:26:24.899Z,18.62
2018-05-25T02:27:29.348Z,18.72
2018-05-25T02:28:34.987Z,18.62
2018-05-25T02:29:40.369Z,18.62
2018-05-25T02:30:45.891Z,18.62
2018-05-25T02:31:51.406Z,18.67
2018-05-25T02:32:57.932Z,18.62
2018-05-25T02:34:02.437Z,18.67
2018-05-25T02:35:07.956Z,18.58
2018-05-25T02:36:13.486Z,18.62
2018-05-25T02:37:18.983Z,18.70
2018-05-25T02:38:24.502Z,18.72
2018-05-25T02:39:31.031Z,18.54
2018-05-25T02:40:35.538Z,18.61
2018-05-25T02:41:41.064Z,18.55
2018-05-25T02:42:46.563Z,18.55
2018-05-25T02:43:52.096Z,18.70
2018-05-25T02:44:57.605Z,18.65
2018-05-25T02:46:04.123Z,18.55
2018-05-25T02:47:08.634Z,18.55
2018-05-25T02:48:14.148Z,18.55
2018-05-25T02:49:19.673Z,18.67
2018-05-25T02:50:25.181Z,18.58
2018-05-25T02:51:30.698Z,18.70
2018-05-25T02:52:37.227Z,18.68
2018-05-25T02:53:41.733Z,18.64
2018-05-25T02:54:47.245Z,18.65
2018-05-25T02:55:52.773Z,18.61
2018-05-25T02:56:58.273Z,18.58
2018-05-25T02:58:03.800Z,18.65
2018-05-25T02:59:10.333Z,18.68
2018-05-25T03:00:14.837Z,18.59
2018-05-25T03:01:20.344Z,18.59
2018-05-25T03:02:25.880Z,18.70
2018-05-25T03:03:31.396Z,18.62
2018-05-25T03:04:36.904Z,18.70
2018-05-25T03:05:43.979Z,18.61
2018-05-25T03:06:47.924Z,18.61
2018-05-25T03:07:53.440Z,18.62
2018-05-25T03:08:58.965Z,18.68
2018-05-25T03:10:04.476Z,18.72
2018-05-25T03:11:09.997Z,18.72
2018-05-25T03:12:16.520Z,18.64
2018-05-25T03:13:21.026Z,18.67
2018-05-25T03:14:26.546Z,18.68
2018-05-25T03:15:32.066Z,18.68
2018-05-25T03:16:37.584Z,18.68
2018-05-25T03:17:43.096Z,18.65
2018-05-25T03:18:49.622Z,18.65
2018-05-25T03:19:54.127Z,18.65
2018-05-25T03:20:59.656Z,18.67
2018-05-25T03:22:05.155Z,18.67
2018-05-25T03:23:10.673Z,18.77
2018-05-25T03:24:16.199Z,18.74
2018-05-25T03:25:22.715Z,18.74
2018-05-25T03:26:27.236Z,18.72
2018-05-25T03:27:32.742Z,18.77
2018-05-25T03:28:38.257Z,18.77
2018-05-25T03:29:43.782Z,18.74
2018-05-25T03:30:49.282Z,18.74
2018-05-25T03:31:55.821Z,18.82
2018-05-25T03:33:00.317Z,18.72
2018-05-25T03:34:05.834Z,18.74
2018-05-25T03:35:11.389Z,18.77
2018-05-25T03:36:16.870Z,18.79
2018-05-25T03:37:22.380Z,18.74
2018-05-25T03:38:28.911Z,18.77
2018-05-25T03:39:33.420Z,18.82
2018-05-25T03:40:38.939Z,18.77
2018-05-25T03:41:44.451Z,18.79
2018-05-25T03:42:49.963Z,18.76
2018-05-25T03:43:55.575Z,18.74
2018-05-25T03:45:02.018Z,18.79
2018-05-25T03:46:06.521Z,18.68
2018-05-25T03:47:12.973Z,18.79
2018-05-25T03:48:17.549Z,18.80
2018-05-25T03:49:23.070Z,18.76
2018-05-25T03:50:28.580Z,18.76
2018-05-25T03:51:35.108Z,18.79
2018-05-25T03:52:39.612Z,18.82
2018-05-25T03:53:45.128Z,18.80
2018-05-25T03:54:50.657Z,18.82
2018-05-25T03:55:56.169Z,18.80
2018-05-25T03:57:01.687Z,18.83
2018-05-25T03:58:08.209Z,18.77
2018-05-25T03:59:12.718Z,18.77
2018-05-25T04:00:18.241Z,18.77
2018-05-25T04:01:23.760Z,18.82
2018-05-25T04:02:29.263Z,18.80
2018-05-25T04:03:34.783Z,18.82
2018-05-25T04:04:41.316Z,18.79
2018-05-25T04:05:45.812Z,18.83
2018-05-25T04:06:51.332Z,18.82
2018-05-25T04:07:56.865Z,18.82
2018-05-25T04:09:02.365Z,18.76
2018-05-25T04:10:07.881Z,18.92
2018-05-25T04:11:14.414Z,18.92
2018-05-25T04:12:18.916Z,18.83
2018-05-25T04:13:24.435Z,18.95
2018-05-25T04:14:29.948Z,18.90
2018-05-25T04:15:35.523Z,18.94
2018-05-25T04:16:40.974Z,18.97
2018-05-25T04:17:47.558Z,18.94
2018-05-25T04:18:52.011Z,18.98
2018-05-25T04:19:57.527Z,18.92
2018-05-25T04:21:03.042Z,18.95
2018-05-25T04:22:08.567Z,18.97
2018-05-25T04:23:14.078Z,18.87
2018-05-25T04:24:20.617Z,19.05
2018-05-25T04:25:25.109Z,18.99
2018-05-25T04:26:30.629Z,18.99
2018-05-25T04:27:36.148Z,19.10
2018-05-25T04:28:41.679Z,19.01
2018-05-25T04:29:47.179Z,19.05
2018-05-25T04:30:53.716Z,19.05
2018-05-25T04:31:58.215Z,19.05
2018-05-25T04:33:03.724Z,19.10
2018-05-25T04:34:09.242Z,19.02
2018-05-25T04:35:14.766Z,19.11
2018-05-25T04:36:20.280Z,19.13
2018-05-25T04:37:26.801Z,19.06
2018-05-25T04:38:31.309Z,19.05
2018-05-25T04:39:36.828Z,19.11
2018-05-25T04:40:42.345Z,19.01
2018-05-25T04:41:47.860Z,19.08
2018-05-25T04:42:53.371Z,19.01
2018-05-25T04:43:59.917Z,18.97
2018-05-25T04:45:04.423Z,19.05
2018-05-25T04:46:09.925Z,19.01
2018-05-25T04:47:15.451Z,19.10
2018-05-25T04:48:20.960Z,19.02
2018-05-25T04:49:26.475Z,19.05
2018-05-25T04:50:33.000Z,18.99
2018-05-25T04:51:37.516Z,18.99
2018-05-25T04:52:43.026Z,18.98
2018-05-25T04:53:48.553Z,19.08
2018-05-25T04:54:54.052Z,19.08
2018-05-25T04:55:59.610Z,19.08
2018-05-25T04:57:06.100Z,19.02
2018-05-25T04:58:10.613Z,18.99
2018-05-25T04:59:16.140Z,19.01
2018-05-25T05:00:21.643Z,18.99
2018-05-25T05:01:27.148Z,19.11
2018-05-25T05:02:32.676Z,19.01
2018-05-25T05:03:39.204Z,19.06
2018-05-25T05:04:43.702Z,19.06
2018-05-25T05:05:49.222Z,19.06
2018-05-25T05:06:54.744Z,19.06
2018-05-25T05:08:00.265Z,19.08
2018-05-25T05:09:05.766Z,19.08
2018-05-25T05:10:12.313Z,19.05
2018-05-25T05:11:16.817Z,19.01
2018-05-25T05:12:22.330Z,19.13
2018-05-25T05:13:27.842Z,19.11
2018-05-25T05:14:33.348Z,19.08
2018-05-25T05:15:38.876Z,19.02
2018-05-25T05:16:45.407Z,19.14
2018-05-25T05:17:49.904Z,19.08
2018-05-25T05:18:55.434Z,19.10
2018-05-25T05:20:00.942Z,19.14
2018-05-25T05:21:06.457Z,19.10
2018-05-25T05:22:11.969Z,19.08
2018-05-25T05:23:18.510Z,19.13
2018-05-25T05:24:23.001Z,19.08
2018-05-25T05:25:28.519Z,19.14
2018-05-25T05:26:34.039Z,19.11
2018-05-25T05:27:39.548Z,19.18
2018-05-25T05:28:45.184Z,19.17
2018-05-25T05:29:51.597Z,19.11
2018-05-25T05:30:56.113Z,19.15
2018-05-25T05:32:01.630Z,19.24
2018-05-25T05:33:07.156Z,19.24
2018-05-25T05:34:12.662Z,19.29
2018-05-25T05:35:18.169Z,19.25
2018-05-25T05:36:24.697Z,19.31
2018-05-25T05:37:29.225Z,19.32
2018-05-25T05:38:34.729Z,19.32
2018-05-25T05:39:40.236Z,19.38
2018-05-25T05:40:45.756Z,19.36
2018-05-25T05:41:51.274Z,19.36
2018-05-25T05:42:57.792Z,19.39
2018-05-25T05:44:02.313Z,19.38
2018-05-25T05:45:07.844Z,19.43
2018-05-25T05:46:13.346Z,19.48
2018-05-25T05:47:18.865Z,19.48
2018-05-25T05:48:24.376Z,19.54
2018-05-25T05:49:30.905Z,19.65
2018-05-25T05:50:35.406Z,19.68
2018-05-25T05:51:40.929Z,19.70
2018-05-25T05:52:46.441Z,19.68
2018-05-25T05:53:51.954Z,19.87
2018-05-25T05:54:57.471Z,19.78
2018-05-25T05:56:04.004Z,19.90
2018-05-25T05:57:08.495Z,19.79
2018-05-25T05:58:14.026Z,19.86
2018-05-25T05:59:19.535Z,19.84
2018-05-25T06:00:25.057Z,19.93
2018-05-25T06:01:30.572Z,19.93
2018-05-25T06:02:37.113Z,20.03
2018-05-25T06:03:41.607Z,20.02
2018-05-25T06:04:47.129Z,20.00
2018-05-25T06:05:52.634Z,19.98
2018-05-25T06:06:58.174Z,20.06
2018-05-25T06:08:03.673Z,20.06
2018-05-25T06:09:10.223Z,20.20
2018-05-25T06:10:14.710Z,20.24
2018-05-25T06:11:20.228Z,20.20
2018-05-25T06:12:25.773Z,20.12
2018-05-25T06:13:31.266Z,20.28
2018-05-25T06:14:36.771Z,20.21
2018-05-25T06:15:43.303Z,20.18
2018-05-25T06:16:47.806Z,20.28
2018-05-25T06:17:53.335Z,20.35
2018-05-25T06:18:58.859Z,20.34
2018-05-25T06:20:04.366Z,20.34
2018-05-25T06:21:09.876Z,20.42
2018-05-25T06:22:16.415Z,20.39
2018-05-25T06:23:20.911Z,20.50
2018-05-25T06:24:26.431Z,20.39
2018-05-25T06:25:31.946Z,20.49
2018-05-25T06:26:37.486Z,20.39
2018-05-25T06:27:42.984Z,20.46
2018-05-25T06:28:49.520Z,20.50
2018-05-25T06:29:54.039Z,20.53
2018-05-25T06:30:59.536Z,20.54
2018-05-25T06:32:05.053Z,20.49
2018-05-25T06:33:10.565Z,20.58
2018-05-25T06:34:16.103Z,20.62
2018-05-25T06:35:22.622Z,20.62
2018-05-25T06:36:27.199Z,20.72
2018-05-25T06:37:32.649Z,20.72
2018-05-25T06:38:38.157Z,20.80
2018-05-25T06:39:43.689Z,20.76
2018-05-25T06:40:49.203Z,20.79
2018-05-25T06:41:55.723Z,20.77
2018-05-25T06:43:00.232Z,20.79
2018-05-25T06:44:05.748Z,20.95
2018-05-25T06:45:11.265Z,20.90
2018-05-25T06:46:16.779Z,21.01
2018-05-25T06:47:22.305Z,20.99
2018-05-25T06:48:28.840Z,20.95
2018-05-25T06:49:33.352Z,21.04
2018-05-25T06:50:38.909Z,21.05
2018-05-25T06:51:44.371Z,21.08
2018-05-25T06:52:49.895Z,21.08
2018-05-25T06:53:55.405Z,21.09
2018-05-25T06:55:01.940Z,21.09
2018-05-25T06:56:06.438Z,21.14
2018-05-25T06:57:11.953Z,21.11
2018-05-25T06:58:17.480Z,21.20
2018-05-25T06:59:22.985Z,21.20
2018-05-25T07:00:28.510Z,21.23
2018-05-25T07:01:35.094Z,21.27
2018-05-25T07:02:39.538Z,21.34
2018-05-25T07:03:45.081Z,21.30
2018-05-25T07:04:50.592Z,21.30
2018-05-25T07:05:56.103Z,21.39
2018-05-25T07:07:01.607Z,21.32
2018-05-25T07:08:08.144Z,21.32
2018-05-25T07:09:12.654Z,21.44
2018-05-25T07:10:18.168Z,21.35
2018-05-25T07:11:23.682Z,21.48
2018-05-25T07:12:29.264Z,21.51
2018-05-25T07:13:34.727Z,21.60
2018-05-25T07:14:41.255Z,21.57
2018-05-25T07:15:45.766Z,21.59
2018-05-25T07:16:51.285Z,21.59
2018-05-25T07:17:56.832Z,21.64
2018-05-25T07:19:02.316Z,21.69
2018-05-25T07:20:07.843Z,21.61
2018-05-25T07:21:14.363Z,21.74
2018-05-25T07:22:18.868Z,21.71
2018-05-25T07:23:24.388Z,21.78
2018-05-25T07:24:29.909Z,21.81
2018-05-25T07:25:35.414Z,21.83
2018-05-25T07:26:40.940Z,21.94
2018-05-25T07:27:47.479Z,21.92
2018-05-25T07:28:51.979Z,21.98
2018-05-25T07:29:57.490Z,21.99
2018-05-25T07:31:03.016Z,22.02
2018-05-25T07:32:08.543Z,21.98
2018-05-25T07:33:14.053Z,22.04
2018-05-25T07:34:20.574Z,22.12
2018-05-25T07:35:25.083Z,22.10
2018-05-25T07:36:30.601Z,22.10
2018-05-25T07:37:36.119Z,21.97
2018-05-25T07:38:41.647Z,22.01
2018-05-25T07:39:47.173Z,22.09
2018-05-25T07:40:53.710Z,22.12
2018-05-25T07:41:58.196Z,22.12
2018-05-25T07:43:03.710Z,22.16
2018-05-25T07:44:09.228Z,22.12
2018-05-25T07:45:14.757Z,22.14
2018-05-25T07:46:20.274Z,22.17
2018-05-25T07:47:26.799Z,22.22
2018-05-25T07:48:31.309Z,22.35
2018-05-25T07:49:36.915Z,22.34
2018-05-25T07:50:42.343Z,22.32
2018-05-25T07:51:47.865Z,22.39
2018-05-25T07:52:53.403Z,22.35
2018-05-25T07:53:59.902Z,22.37
2018-05-25T07:55:04.424Z,22.49
2018-05-25T07:56:09.944Z,22.41
2018-05-25T07:57:15.448Z,22.43
2018-05-25T07:58:20.970Z,22.54
2018-05-25T07:59:26.493Z,22.53
2018-05-25T08:00:33.039Z,22.60
2018-05-25T08:01:37.523Z,22.59
2018-05-25T08:02:43.055Z,22.60
2018-05-25T08:03:48.569Z,22.69
2018-05-25T08:04:54.081Z,22.74
2018-05-25T08:05:59.599Z,22.75
2018-05-25T08:07:06.125Z,22.82
2018-05-25T08:08:10.653Z,22.90
2018-05-25T08:09:16.159Z,22.87
2018-05-25T08:10:21.677Z,22.96
2018-05-25T08:11:27.196Z,22.92
2018-05-25T08:12:32.707Z,23.04
2018-05-25T08:13:39.235Z,22.99
2018-05-25T08:14:43.756Z,22.99
2018-05-25T08:15:49.271Z,23.11
2018-05-25T08:16:54.792Z,23.17
2018-05-25T08:18:00.328Z,23.15
2018-05-25T08:19:05.826Z,23.20
2018-05-25T08:20:12.357Z,23.19
2018-05-25T08:21:16.873Z,23.20
2018-05-25T08:22:22.464Z,23.26
2018-05-25T08:23:27.899Z,23.24
2018-05-25T08:24:33.415Z,23.23
2018-05-25T08:25:38.949Z,23.29
2018-05-25T08:26:45.473Z,23.34
2018-05-25T08:27:50.004Z,23.47
2018-05-25T08:28:55.497Z,23.43
2018-05-25T08:30:01.012Z,23.52
2018-05-25T08:31:06.532Z,23.49
2018-05-25T08:32:12.066Z,23.52
2018-05-25T08:33:18.600Z,23.52
2018-05-25T08:34:23.095Z,23.50
2018-05-25T08:35:28.608Z,23.58
2018-05-25T08:36:34.126Z,23.58
2018-05-25T08:37:39.653Z,23.71
2018-05-25T08:38:45.167Z,23.70
2018-05-25T08:39:51.696Z,23.75
2018-05-25T08:40:56.210Z,23.87
2018-05-25T08:42:01.752Z,23.92
2018-05-25T08:43:07.246Z,23.92
2018-05-25T08:44:12.785Z,23.95
2018-05-25T08:45:18.285Z,23.89
2018-05-25T08:46:24.813Z,24.01
2018-05-25T08:47:29.346Z,24.10
2018-05-25T08:48:34.853Z,24.19
2018-05-25T08:49:40.363Z,24.20
2018-05-25T08:50:45.890Z,24.16
2018-05-25T08:51:51.605Z,24.17
2018-05-25T08:52:57.939Z,24.16
2018-05-25T08:54:02.447Z,24.24
2018-05-25T08:55:08.029Z,24.23
2018-05-25T08:56:13.494Z,24.29
2018-05-25T08:57:18.998Z,24.39
2018-05-25T08:58:24.534Z,24.49
2018-05-25T08:59:31.045Z,24.45
2018-05-25T09:00:35.551Z,24.54
2018-05-25T09:01:41.081Z,24.63
2018-05-25T09:02:46.593Z,24.75
2018-05-25T09:03:52.126Z,24.77
2018-05-25T09:04:57.635Z,24.91
2018-05-25T09:06:04.166Z,24.87
2018-05-25T09:07:08.675Z,24.88
2018-05-25T09:08:14.185Z,24.95
2018-05-25T09:09:19.760Z,24.98
2018-05-25T09:10:25.231Z,24.95
2018-05-25T09:11:30.750Z,25.09
2018-05-25T09:12:37.279Z,25.02
2018-05-25T09:13:41.801Z,25.05
2018-05-25T09:14:47.315Z,25.10
2018-05-25T09:15:52.833Z,25.15
2018-05-25T09:16:58.367Z,25.25
2018-05-25T09:18:03.879Z,25.27
2018-05-25T09:19:10.425Z,25.38
2018-05-25T09:20:14.914Z,25.35
2018-05-25T09:21:20.439Z,25.44
2018-05-25T09:22:25.968Z,25.49
2018-05-25T09:23:31.494Z,25.64
2018-05-25T09:24:36.993Z,25.57
2018-05-25T09:25:43.523Z,25.57
2018-05-25T09:26:48.055Z,25.61
2018-05-25T09:27:53.560Z,25.62
2018-05-25T09:28:59.070Z,25.64
2018-05-25T09:30:04.600Z,25.68
2018-05-25T09:31:10.132Z,25.75
2018-05-25T09:32:16.651Z,25.71
2018-05-25T09:33:21.161Z,25.69
2018-05-25T09:34:26.684Z,25.62
2018-05-25T09:35:32.197Z,25.61
2018-05-25T09:36:37.714Z,25.59
2018-05-25T09:37:43.232Z,25.56
2018-05-25T09:38:49.780Z,25.46
2018-05-25T09:39:54.280Z,25.43
2018-05-25T09:40:59.806Z,25.37
2018-05-25T09:42:05.327Z,25.34
2018-05-25T09:43:10.843Z,25.20
2018-05-25T09:44:16.364Z,25.22
2018-05-25T09:45:22.899Z,25.16
2018-05-25T09:46:27.427Z,25.07
2018-05-25T09:47:32.931Z,25.00
2018-05-25T09:48:38.443Z,25.06
2018-05-25T09:49:43.958Z,24.94
2018-05-25T09:50:49.491Z,24.88
2018-05-25T09:51:56.027Z,24.87
2018-05-25T09:53:00.538Z,24.82
2018-05-25T09:54:06.055Z,24.71
2018-05-25T09:55:11.577Z,24.61
2018-05-25T09:56:17.084Z,24.63
2018-05-25T09:57:22.691Z,24.59
2018-05-25T09:58:29.143Z,24.59
2018-05-25T09:59:33.648Z,24.47
2018-05-25T10:00:39.176Z,24.49
2018-05-25T10:01:44.686Z,24.50
2018-05-25T10:02:50.204Z,24.45
2018-05-25T10:03:55.732Z,24.42
2018-05-25T10:05:02.273Z,24.37
2018-05-25T10:06:06.758Z,24.32
2018-05-25T10:07:12.280Z,24.23
2018-05-25T10:08:17.802Z,24.27
2018-05-25T10:09:23.327Z,24.19
2018-05-25T10:10:28.842Z,24.19
2018-05-25T10:11:35.386Z,24.12
2018-05-25T10:12:39.886Z,24.08
2018-05-25T10:13:45.426Z,24.01
2018-05-25T10:14:50.936Z,23.90
2018-05-25T10:15:56.435Z,23.87
2018-05-25T10:17:01.971Z,23.79
2018-05-25T10:18:08.498Z,23.75
2018-05-25T10:19:13.004Z,23.70
2018-05-25T10:20:18.518Z,23.71
2018-05-25T10:21:24.043Z,23.68
2018-05-25T10:22:29.598Z,23.53
2018-05-25T10:23:35.085Z,23.47
2018-05-25T10:24:41.613Z,23.47
2018-05-25T10:25:46.143Z,23.45
2018-05-25T10:26:51.636Z,23.42
2018-05-25T10:27:57.268Z,23.31
2018-05-25T10:29:02.676Z,23.29
2018-05-25T10:30:08.196Z,23.29
2018-05-25T10:31:14.749Z,23.23
2018-05-25T10:32:19.239Z,23.23
2018-05-25T10:33:24.783Z,23.17
2018-05-25T10:34:30.283Z,23.22
2018-05-25T10:35:35.788Z,23.19
2018-05-25T10:36:41.325Z,23.11
2018-05-25T10:37:47.844Z,23.08
2018-05-25T10:38:52.365Z,22.99
2018-05-25T10:39:57.883Z,22.96
2018-05-25T10:41:03.452Z,22.87
2018-05-25T10:42:08.909Z,22.93
2018-05-25T10:43:14.435Z,22.94
2018-05-25T10:44:20.957Z,22.84
2018-05-25T10:45:25.468Z,22.90
2018-05-25T10:46:30.994Z,22.87
2018-05-25T10:47:36.508Z,22.80
2018-05-25T10:48:42.068Z,22.82
2018-05-25T10:49:47.544Z,22.77
2018-05-25T10:50:54.078Z,22.77
2018-05-25T10:51:58.595Z,22.82
2018-05-25T10:53:04.122Z,22.75
2018-05-25T10:54:09.627Z,22.68
2018-05-25T10:55:15.144Z,22.67
2018-05-25T10:56:20.674Z,22.74
2018-05-25T10:57:27.186Z,22.72
2018-05-25T10:58:31.733Z,22.74
2018-05-25T10:59:37.218Z,22.67
2018-05-25T11:00:42.792Z,22.75
2018-05-25T11:01:48.257Z,22.71
2018-05-25T11:02:53.796Z,22.87
2018-05-25T11:04:00.321Z,22.78
2018-05-25T11:05:04.808Z,22.82
2018-05-25T11:06:10.332Z,22.77
2018-05-25T11:07:15.853Z,22.78
2018-05-25T11:08:21.369Z,22.84
2018-05-25T11:09:27.777Z,22.89
2018-05-25T11:10:33.438Z,22.90
2018-05-25T11:11:38.008Z,22.87
2018-05-25T11:12:43.449Z,22.92
2018-05-25T11:13:48.971Z,22.87
2018-05-25T11:14:54.497Z,22.86
2018-05-25T11:15:59.995Z,22.92
2018-05-25T11:17:06.540Z,22.90
2018-05-25T11:18:11.040Z,22.90
2018-05-25T11:19:16.574Z,22.90
2018-05-25T11:20:22.082Z,22.94
2018-05-25T11:21:27.602Z,22.94
2018-05-25T11:22:33.148Z,23.01
2018-05-25T11:23:39.652Z,22.99
2018-05-25T11:24:44.151Z,23.08
2018-05-25T11:25:49.667Z,23.14
2018-05-25T11:26:55.208Z,23.04
2018-05-25T11:28:00.723Z,23.05
2018-05-25T11:29:06.240Z,23.19
2018-05-25T11:30:12.775Z,23.31
2018-05-25T11:31:17.273Z,23.24
2018-05-25T11:32:22.791Z,23.23
2018-05-25T11:33:28.412Z,23.32
2018-05-25T11:34:33.831Z,23.35
2018-05-25T11:35:39.396Z,23.39
2018-05-25T11:36:45.891Z,23.43
2018-05-25T11:37:50.399Z,23.42
2018-05-25T11:38:55.907Z,23.42
2018-05-25T11:40:01.422Z,23.42
2018-05-25T11:41:06.967Z,23.43
2018-05-25T11:42:12.493Z,23.52
2018-05-25T11:43:19.008Z,23.53
2018-05-25T11:44:23.503Z,23.49
2018-05-25T11:45:29.020Z,23.58
2018-05-25T11:46:34.540Z,23.57
2018-05-25T11:47:40.055Z,23.61
2018-05-25T11:48:45.574Z,23.64
2018-05-25T11:49:52.107Z,23.62
2018-05-25T11:50:56.651Z,23.70
2018-05-25T11:52:02.136Z,23.76
2018-05-25T11:53:07.674Z,23.80
2018-05-25T11:54:13.222Z,23.79
2018-05-25T11:55:18.700Z,23.89
2018-05-25T11:56:25.249Z,23.94
2018-05-25T11:57:29.731Z,23.97
2018-05-25T11:58:35.285Z,23.97
2018-05-25T11:59:40.779Z,24.10
2018-05-25T12:00:46.299Z,24.12
2018-05-25T12:01:51.829Z,24.19
2018-05-25T12:02:58.350Z,24.22
2018-05-25T12:04:02.860Z,24.45
2018-05-25T12:05:08.376Z,24.59
2018-05-25T12:06:13.939Z,24.80
2018-05-25T12:07:19.422Z,24.85
2018-05-25T12:08:24.965Z,25.09
2018-05-25T12:09:31.449Z,25.20
2018-05-25T12:10:35.963Z,25.27
2018-05-25T12:11:41.535Z,25.31
2018-05-25T12:12:47.038Z,25.42
2018-05-25T12:13:52.529Z,25.47
2018-05-25T12:14:58.039Z,25.54
2018-05-25T12:16:04.574Z,25.65
2018-05-25T12:17:09.111Z,25.79
2018-05-25T12:18:14.602Z,25.87
2018-05-25T12:19:20.130Z,25.99
2018-05-25T12:20:25.643Z,26.08
2018-05-25T12:21:31.170Z,26.17
2018-05-25T12:22:37.711Z,26.29
2018-05-25T12:23:42.215Z,26.40
2018-05-25T12:24:47.725Z,26.49
2018-05-25T12:25:53.293Z,26.69
2018-05-25T12:26:58.763Z,26.65
2018-05-25T12:28:04.285Z,26.69
2018-05-25T12:29:10.812Z,26.86
2018-05-25T12:30:15.332Z,26.87
2018-05-25T12:31:20.841Z,26.99
2018-05-25T12:32:26.367Z,27.04
2018-05-25T12:33:31.898Z,27.09
2018-05-25T12:34:37.412Z,27.16
2018-05-25T12:35:43.958Z,27.19
2018-05-25T12:36:48.460Z,27.14
2018-05-25T12:37:53.980Z,27.23
2018-05-25T12:38:59.509Z,27.29
2018-05-25T12:40:05.012Z,27.33
2018-05-25T12:41:10.571Z,27.32
2018-05-25T12:42:17.073Z,27.31
2018-05-25T12:43:21.582Z,27.36
2018-05-25T12:44:27.121Z,27.42
2018-05-25T12:45:32.630Z,27.50
2018-05-25T12:46:38.143Z,27.53
2018-05-25T12:47:43.680Z,27.53
2018-05-25T12:48:50.200Z,27.66
2018-05-25T12:49:54.711Z,27.69
2018-05-25T12:51:00.240Z,27.79
2018-05-25T12:52:05.757Z,27.73
2018-05-25T12:53:11.303Z,27.76
2018-05-25T12:54:16.809Z,27.85
2018-05-25T12:55:23.346Z,27.89
2018-05-25T12:56:27.845Z,27.77
2018-05-25T12:57:33.353Z,27.76
2018-05-25T12:58:38.896Z,27.80
2018-05-25T12:59:44.407Z,27.85
2018-05-25T13:00:49.936Z,27.91
2018-05-25T13:01:56.459Z,27.96
2018-05-25T13:03:00.970Z,27.98
2018-05-25T13:04:06.483Z,27.99
2018-05-25T13:05:12.024Z,27.94
2018-05-25T13:06:17.537Z,27.79
2018-05-25T13:07:23.053Z,27.71
2018-05-25T13:08:29.585Z,27.66
2018-05-25T13:09:34.118Z,27.59
2018-05-25T13:10:39.616Z,27.67
2018-05-25T13:11:45.148Z,27.76
2018-05-25T13:12:50.664Z,27.86
2018-05-25T13:13:56.185Z,27.80
2018-05-25T13:15:02.736Z,27.76
2018-05-25T13:16:07.230Z,27.84
2018-05-25T13:17:12.763Z,27.89
2018-05-25T13:18:18.290Z,27.86
2018-05-25T13:19:23.800Z,27.85
2018-05-25T13:20:29.344Z,27.92
2018-05-25T13:21:35.843Z,27.91
2018-05-25T13:22:40.375Z,28.04
2018-05-25T13:23:45.893Z,28.03
2018-05-25T13:24:51.401Z,27.86
2018-05-25T13:25:56.941Z,27.95
2018-05-25T13:27:02.450Z,27.80
2018-05-25T13:28:08.987Z,27.77
2018-05-25T13:29:13.510Z,27.76
2018-05-25T13:30:19.008Z,27.67
2018-05-25T13:31:24.545Z,27.61
2018-05-25T13:32:30.047Z,27.59
2018-05-25T13:33:35.590Z,27.57
2018-05-25T13:34:42.127Z,27.54
2018-05-25T13:35:46.640Z,27.53
2018-05-25T13:36:52.150Z,27.46
2018-05-25T13:37:57.692Z,27.41
2018-05-25T13:39:03.200Z,27.42
2018-05-25T13:40:08.723Z,27.46
2018-05-25T13:41:15.246Z,27.36
2018-05-25T13:42:19.784Z,27.41
2018-05-25T13:43:25.300Z,27.42
2018-05-25T13:44:30.811Z,27.39
2018-05-25T13:45:36.319Z,27.28
2018-05-25T13:46:41.855Z,27.24
2018-05-25T13:47:48.376Z,27.31
2018-05-25T13:48:52.897Z,27.20
2018-05-25T13:49:58.404Z,27.21
2018-05-25T13:51:03.930Z,27.21
2018-05-25T13:52:09.447Z,27.05
2018-05-25T13:53:14.975Z,27.02
2018-05-25T13:54:21.511Z,27.01
2018-05-25T13:55:26.008Z,27.01
2018-05-25T13:56:31.559Z,26.87
2018-05-25T13:57:37.052Z,26.91
2018-05-25T13:58:42.596Z,26.83
2018-05-25T13:59:48.107Z,26.87
2018-05-25T14:00:54.643Z,26.80
2018-05-25T14:01:59.157Z,26.76
2018-05-25T14:03:04.671Z,26.69